Stephen R Warden — WDC6523 — position and weather

sailwx.info

Track history (hours):
 
Tides and Currents Weather Stations Pressure Air Temp Water Temp Dewpoint Dewpoint Depression Visibility Wind Speed Wind Dir Waves Ship Positions

Stephen R Warden

Owner: American Commercial Lines LLC, Jeffersonvile, IN. More information available from US FCC via Universal Licensing System and Coast Guard Vessel Documentation Center.

Last reported at 2016-Jul-28 20:33 UTC. Time now 2016-Jul-29 05:53 UTC.
Position N 29°56' W 090°12'.

Length 37 m; draft 3 m.

Type: Towing. MMSI: 367057460.

Date/timePositionNaut miles runAvg speedWind from/ knotsBaromVisibWave heightAir tempDewpointWater temp
2016-Jul-28 20:33N 29°56' W 090°12'1 0.1
2016-Jul-28 03:09N 29°56' W 090°11'1 1.5
2016-Jul-28 02:28N 29°56' W 090°12'3 3.1
2016-Jul-28 01:33N 29°57' W 090°09'4 3.6
2016-Jul-28 00:34N 29°55' W 090°06'4 4.3
2016-Jul-27 23:34N 29°57' W 090°03'5 5.4
2016-Jul-27 22:34N 29°55' W 089°57'3 3.4
2016-Jul-27 21:33N 29°52' W 089°56'4 4.2
2016-Jul-27 20:33N 29°50' W 089°60'6 0.2
2016-Jul-26 11:07N 29°44' W 089°60'5 7.9
2016-Jul-26 10:31N 29°49' W 090°00'7 6.7
2016-Jul-26 09:30N 29°53' W 089°54'6 6.2
2016-Jul-26 08:34N 29°56' W 089°60'3 3.3
2016-Jul-26 07:33N 29°57' W 090°04'4 4.2
2016-Jul-26 06:33N 29°57' W 090°08'3 2.9
2016-Jul-26 05:33N 29°56' W 090°12'2 0.1
2016-Jul-25 03:27N 29°57' W 090°13'2 2.4
2016-Jul-25 02:33N 29°56' W 090°11'1 0.7
2016-Jul-25 01:34N 29°56' W 090°12'3 3.1
2016-Jul-25 00:33N 29°55' W 090°08'5 5.2
2016-Jul-24 23:34N 29°57' W 090°03'6 6.1
2016-Jul-24 22:33N 29°55' W 089°56'3 3.1
2016-Jul-24 21:28N 29°52' W 089°55'4 3.9
2016-Jul-24 20:34N 29°50' W 089°59'7 0.6
2016-Jul-24 09:15N 29°44' W 089°60'4 5.1
2016-Jul-24 08:22N 29°48' W 090°00'5 6.0
2016-Jul-24 07:33N 29°53' W 089°58'3 2.7
2016-Jul-24 06:34N 29°52' W 089°55'4 3.8
2016-Jul-24 05:33N 29°55' W 089°57'3 3.5
2016-Jul-24 04:33N 29°57' W 090°01'4 4.1
2016-Jul-24 03:34N 29°55' W 090°05'3 3.2
2016-Jul-24 02:34N 29°56' W 090°09'1 1.4
2016-Jul-24 01:34N 29°57' W 090°09'2 2.2
2016-Jul-24 00:34N 29°56' W 090°11'2 0.1
2016-Jul-22 21:27N 29°57' W 090°14'2 2.6
2016-Jul-22 20:33N 29°56' W 090°11'0 0.1
2016-Jul-22 19:33N 29°56' W 090°11'1 0.7
2016-Jul-22 17:33N 29°57' W 090°10'2 1.7
2016-Jul-22 16:33N 29°56' W 090°08'0 0.5
2016-Jul-22 15:34N 29°56' W 090°08'1 0.7
2016-Jul-22 14:33N 29°57' W 090°08'4 3.5
2016-Jul-22 13:30N 29°55' W 090°12'13 0.4
2016-Jul-21 04:28N 29°60' W 090°26'5 3.5
2016-Jul-21 03:11N 29°57' W 090°23'7 3.5
2016-Jul-21 01:12N 29°58' W 090°15'3 4.0
2016-Jul-21 00:28N 29°56' W 090°13'4 4.0
2016-Jul-20 23:34N 29°57' W 090°09'3 3.3
2016-Jul-20 22:33N 29°55' W 090°07'4 3.9
2016-Jul-20 21:34N 29°57' W 090°03'4 4.1
2016-Jul-20 20:34N 29°56' W 089°59'4 4.2
2016-Jul-20 19:32N 29°54' W 089°55'3 2.6
2016-Jul-20 18:34N 29°53' W 089°57'4 3.9
2016-Jul-20 17:33N 29°50' W 089°60'3 2.6
2016-Jul-20 16:33N 29°47' W 090°01'0 0.0
2016-Jul-20 15:34N 29°47' W 090°01'3 0.1
2016-Jul-19 14:11N 29°44' W 089°60'5 5.5
2016-Jul-19 13:20N 29°49' W 090°00'5 6.1
2016-Jul-19 12:33N 29°53' W 089°58'3 3.0
2016-Jul-19 11:33N 29°55' W 089°55'0 0.2
2016-Jul-19 10:33N 29°55' W 089°56'0 0.0
2016-Jul-19 09:33N 29°55' W 089°56'2 2.5
2016-Jul-19 08:34N 29°55' W 089°58'5 4.7
2016-Jul-19 07:34N 29°57' W 090°04'4 1.4
2016-Jul-19 04:34N 29°56' W 090°08'0 0.0
2016-Jul-19 03:33N 29°56' W 090°08'3 1.6
2016-Jul-19 01:30N 29°55' W 090°12'  
Track history (hours):
 
Tides and Currents Weather Stations Pressure Air Temp Water Temp Dewpoint Dewpoint Depression Visibility Wind Speed Wind Dir Waves Ship Positions

Stephen R Warden

Owner: American Commercial Lines LLC, Jeffersonvile, IN. More information available from US FCC via Universal Licensing System and Coast Guard Vessel Documentation Center.

Last reported at 2016-Jul-28 20:33 UTC. Time now 2016-Jul-29 05:53 UTC.
Position N 29°56' W 090°12'.

Length 37 m; draft 3 m.

Type: Towing. MMSI: 367057460.

Date/timePositionNaut miles runAvg speedWind from/ knotsBaromVisibWave heightAir tempDewpointWater temp
2016-Jul-28 20:33N 29°56' W 090°12'1 0.1
2016-Jul-28 03:09N 29°56' W 090°11'1 1.5
2016-Jul-28 02:28N 29°56' W 090°12'3 3.1
2016-Jul-28 01:33N 29°57' W 090°09'4 3.6
2016-Jul-28 00:34N 29°55' W 090°06'4 4.3
2016-Jul-27 23:34N 29°57' W 090°03'5 5.4
2016-Jul-27 22:34N 29°55' W 089°57'3 3.4
2016-Jul-27 21:33N 29°52' W 089°56'4 4.2
2016-Jul-27 20:33N 29°50' W 089°60'6 0.2
2016-Jul-26 11:07N 29°44' W 089°60'5 7.9
2016-Jul-26 10:31N 29°49' W 090°00'7 6.7
2016-Jul-26 09:30N 29°53' W 089°54'6 6.2
2016-Jul-26 08:34N 29°56' W 089°60'3 3.3
2016-Jul-26 07:33N 29°57' W 090°04'4 4.2
2016-Jul-26 06:33N 29°57' W 090°08'3 2.9
2016-Jul-26 05:33N 29°56' W 090°12'2 0.1
2016-Jul-25 03:27N 29°57' W 090°13'2 2.4
2016-Jul-25 02:33N 29°56' W 090°11'1 0.7
2016-Jul-25 01:34N 29°56' W 090°12'3 3.1
2016-Jul-25 00:33N 29°55' W 090°08'5 5.2
2016-Jul-24 23:34N 29°57' W 090°03'6 6.1
2016-Jul-24 22:33N 29°55' W 089°56'3 3.1
2016-Jul-24 21:28N 29°52' W 089°55'4 3.9
2016-Jul-24 20:34N 29°50' W 089°59'7 0.6
2016-Jul-24 09:15N 29°44' W 089°60'4 5.1
2016-Jul-24 08:22N 29°48' W 090°00'5 6.0
2016-Jul-24 07:33N 29°53' W 089°58'3 2.7
2016-Jul-24 06:34N 29°52' W 089°55'4 3.8
2016-Jul-24 05:33N 29°55' W 089°57'3 3.5
2016-Jul-24 04:33N 29°57' W 090°01'4 4.1
2016-Jul-24 03:34N 29°55' W 090°05'3 3.2
2016-Jul-24 02:34N 29°56' W 090°09'1 1.4
2016-Jul-24 01:34N 29°57' W 090°09'2 2.2
2016-Jul-24 00:34N 29°56' W 090°11'2 0.1
2016-Jul-22 21:27N 29°57' W 090°14'2 2.6
2016-Jul-22 20:33N 29°56' W 090°11'0 0.1
2016-Jul-22 19:33N 29°56' W 090°11'1 0.7
2016-Jul-22 17:33N 29°57' W 090°10'2 1.7
2016-Jul-22 16:33N 29°56' W 090°08'0 0.5
2016-Jul-22 15:34N 29°56' W 090°08'1 0.7
2016-Jul-22 14:33N 29°57' W 090°08'4 3.5
2016-Jul-22 13:30N 29°55' W 090°12'13 0.4
2016-Jul-21 04:28N 29°60' W 090°26'5 3.5
2016-Jul-21 03:11N 29°57' W 090°23'7 3.5
2016-Jul-21 01:12N 29°58' W 090°15'3 4.0
2016-Jul-21 00:28N 29°56' W 090°13'4 4.0
2016-Jul-20 23:34N 29°57' W 090°09'3 3.3
2016-Jul-20 22:33N 29°55' W 090°07'4 3.9
2016-Jul-20 21:34N 29°57' W 090°03'4 4.1
2016-Jul-20 20:34N 29°56' W 089°59'4 4.2
2016-Jul-20 19:32N 29°54' W 089°55'3 2.6
2016-Jul-20 18:34N 29°53' W 089°57'4 3.9
2016-Jul-20 17:33N 29°50' W 089°60'3 2.6
2016-Jul-20 16:33N 29°47' W 090°01'0 0.0
2016-Jul-20 15:34N 29°47' W 090°01'3 0.1
2016-Jul-19 14:11N 29°44' W 089°60'5 5.5
2016-Jul-19 13:20N 29°49' W 090°00'5 6.1
2016-Jul-19 12:33N 29°53' W 089°58'3 3.0
2016-Jul-19 11:33N 29°55' W 089°55'0 0.2
2016-Jul-19 10:33N 29°55' W 089°56'0 0.0
2016-Jul-19 09:33N 29°55' W 089°56'2 2.5
2016-Jul-19 08:34N 29°55' W 089°58'5 4.7
2016-Jul-19 07:34N 29°57' W 090°04'4 1.4
2016-Jul-19 04:34N 29°56' W 090°08'0 0.0
2016-Jul-19 03:33N 29°56' W 090°08'3 1.6
2016-Jul-19 01:30N 29°55' W 090°12'  

Dump ship's entire track history